Terminal Aerodrome Forecast
Issued by NWS

Home | Current Version | Previous Version | Text Only | Print | Product List | Glossary On
Versions: 1 2 3 4 5 6 7 8 9 10 11 12 13 14 15 16 17 18 19 20 21 22 23 24 25 26 27 28 29 30 31 32 33 34 35 36 37 38 39 40 41 42 43 44 45 46 47 48 49 50
000
FTUS43 KMKX 162014 AAA
TAFUES
TAF AMD
KUES 162014Z 1620/1718 11009KT P6SM FEW035 BKN045
     FM162300 11008KT 6SM -SHRA VCTS OVC040CB
     FM170100 12006KT P6SM VCSH OVC035
     FM170600 14006KT P6SM VCTS OVC025CB
     FM170900 16006KT 6SM -SHRA OVC025
     FM171100 18006KT P6SM VCSH OVC020
     FM171500 21009G17KT P6SM -SHRA OVC035=

USA.gov is the U.S. government's official web portal to all federal, state and local government web resources and services.